Impacts TAF Board
For situational awareness. Not to be used for flight planning purposes.
IDs:

KSFO - San Francisco Intl, CA, US

Issued at 2101 UTC 15 Oct 2018
Updated at 2132 UTC 15 Oct 2018
Potential Impact None Slight Moderate High
Time<<16/22Z 16/23Z 17/00Z 17/01Z 17/02Z 17/03Z 17/04Z 17/05Z 17/06Z 17/07Z 17/08Z 17/09Z 17/10Z
Type PRVL PRVL
VIS >6 >6
CIG -- --
Cover SKC SKC
FltCat VFR VFR
WX -- --
WDir 70 320
WSpd 5 8
WGst -- --
Raw TAF
KSFO 152101Z 1521/1624 09003KT P6SM SKC
  FM152300 31011KT P6SM SKC
  FM160800 28006KT P6SM SKC
  FM161600 07005KT P6SM SKC
  FM162300 32008KT P6SM SKC


METAR Board
Radar Display
Forecast Discussion
For situational awareness. Not to be used for flight planning purposes.